sensor_id;sensor_type;location;lat;lon;timestamp;temperature;humidity
74420;DHT22;62855;50.718;-2.460;2023-06-05T00:00:07;55.94;71.00
74420;DHT22;62855;50.718;-2.460;2023-06-05T00:03:07;55.76;71.00
74420;DHT22;62855;50.718;-2.460;2023-06-05T00:06:06;55.58;72.00
74420;DHT22;62855;50.718;-2.460;2023-06-05T00:09:06;55.40;72.00
74420;DHT22;62855;50.718;-2.460;2023-06-05T00:12:06;55.22;72.00
74420;DHT22;62855;50.718;-2.460;2023-06-05T00:15:07;55.04;72.00
74420;DHT22;62855;50.718;-2.460;2023-06-05T00:18:06;55.04;72.00
74420;DHT22;62855;50.718;-2.460;2023-06-05T00:21:06;54.86;73.00
74420;DHT22;62855;50.718;-2.460;2023-06-05T00:24:06;54.68;73.00
74420;DHT22;62855;50.718;-2.460;2023-06-05T00:27:07;54.68;73.00
74420;DHT22;62855;50.718;-2.460;2023-06-05T00:30:08;54.50;73.00
74420;DHT22;62855;50.718;-2.460;2023-06-05T00:33:06;54.50;73.00
74420;DHT22;62855;50.718;-2.460;2023-06-05T00:36:07;54.32;74.00
74420;DHT22;62855;50.718;-2.460;2023-06-05T00:39:06;54.32;74.00
74420;DHT22;62855;50.718;-2.460;2023-06-05T00:42:07;54.32;74.00
74420;DHT22;62855;50.718;-2.460;2023-06-05T00:45:07;54.14;74.00
74420;DHT22;62855;50.718;-2.460;2023-06-05T00:48:07;54.14;74.00
74420;DHT22;62855;50.718;-2.460;2023-06-05T00:51:06;53.96;74.00
74420;DHT22;62855;50.718;-2.460;2023-06-05T00:54:07;53.96;74.00
74420;DHT22;62855;50.718;-2.460;2023-06-05T00:57:07;53.78;74.00
74420;DHT22;62855;50.718;-2.460;2023-06-05T01:00:08;53.78;74.00
74420;DHT22;62855;50.718;-2.460;2023-06-05T01:03:06;53.60;75.00
74420;DHT22;62855;50.718;-2.460;2023-06-05T01:06:07;53.60;75.00
74420;DHT22;62855;50.718;-2.460;2023-06-05T01:09:07;53.42;75.00
74420;DHT22;62855;50.718;-2.460;2023-06-05T01:12:11;53.42;75.00
74420;DHT22;62855;50.718;-2.460;2023-06-05T01:15:07;53.24;78.00
74420;DHT22;62855;50.718;-2.460;2023-06-05T01:18:07;53.24;78.00
74420;DHT22;62855;50.718;-2.460;2023-06-05T01:21:11;53.06;78.00
74420;DHT22;62855;50.718;-2.460;2023-06-05T01:24:06;53.06;78.00
74420;DHT22;62855;50.718;-2.460;2023-06-05T01:27:14;52.88;79.00
74420;DHT22;62855;50.718;-2.460;2023-06-05T01:30:11;52.88;79.00
74420;DHT22;62855;50.718;-2.460;2023-06-05T01:33:11;52.88;79.00
74420;DHT22;62855;50.718;-2.460;2023-06-05T01:36:06;52.88;79.00
74420;DHT22;62855;50.718;-2.460;2023-06-05T01:39:07;52.88;79.00
74420;DHT22;62855;50.718;-2.460;2023-06-05T01:42:09;52.70;79.00
74420;DHT22;62855;50.718;-2.460;2023-06-05T01:45:08;52.70;79.00
74420;DHT22;62855;50.718;-2.460;2023-06-05T01:48:07;52.70;79.00
74420;DHT22;62855;50.718;-2.460;2023-06-05T01:51:07;52.52;79.00
74420;DHT22;62855;50.718;-2.460;2023-06-05T01:54:06;52.52;79.00
74420;DHT22;62855;50.718;-2.460;2023-06-05T01:57:06;52.34;79.00
74420;DHT22;62855;50.718;-2.460;2023-06-05T02:00:07;52.16;79.00
74420;DHT22;62855;50.718;-2.460;2023-06-05T02:03:07;52.16;79.00
74420;DHT22;62855;50.718;-2.460;2023-06-05T02:06:06;51.98;79.00
74420;DHT22;62855;50.718;-2.460;2023-06-05T02:09:06;51.98;79.00
74420;DHT22;62855;50.718;-2.460;2023-06-05T02:12:06;51.98;80.00
74420;DHT22;62855;50.718;-2.460;2023-06-05T02:15:06;51.80;80.00
74420;DHT22;62855;50.718;-2.460;2023-06-05T02:18:06;51.80;80.00
74420;DHT22;62855;50.718;-2.460;2023-06-05T02:21:06;51.80;80.00
74420;DHT22;62855;50.718;-2.460;2023-06-05T02:24:06;51.62;80.00
74420;DHT22;62855;50.718;-2.460;2023-06-05T02:27:06;51.62;80.00
74420;DHT22;62855;50.718;-2.460;2023-06-05T02:30:07;51.62;80.00
74420;DHT22;62855;50.718;-2.460;2023-06-05T02:33:06;51.44;80.00
74420;DHT22;62855;50.718;-2.460;2023-06-05T02:36:07;51.26;80.00
74420;DHT22;62855;50.718;-2.460;2023-06-05T02:39:06;51.26;80.00
74420;DHT22;62855;50.718;-2.460;2023-06-05T02:42:06;51.08;80.00
74420;DHT22;62855;50.718;-2.460;2023-06-05T02:45:07;51.08;80.00
74420;DHT22;62855;50.718;-2.460;2023-06-05T02:48:06;50.90;80.00
74420;DHT22;62855;50.718;-2.460;2023-06-05T02:51:06;50.90;80.00
74420;DHT22;62855;50.718;-2.460;2023-06-05T02:54:06;50.72;80.00
74420;DHT22;62855;50.718;-2.460;2023-06-05T02:57:06;50.72;80.00
74420;DHT22;62855;50.718;-2.460;2023-06-05T03:00:08;50.54;80.00
74420;DHT22;62855;50.718;-2.460;2023-06-05T03:03:06;50.54;80.00
74420;DHT22;62855;50.718;-2.460;2023-06-05T03:06:06;50.54;80.00
74420;DHT22;62855;50.718;-2.460;2023-06-05T03:09:06;50.36;80.00
74420;DHT22;62855;50.718;-2.460;2023-06-05T03:12:06;50.36;80.00
74420;DHT22;62855;50.718;-2.460;2023-06-05T03:15:07;50.36;80.00
74420;DHT22;62855;50.718;-2.460;2023-06-05T03:18:06;50.18;80.00
74420;DHT22;62855;50.718;-2.460;2023-06-05T03:21:06;50.36;80.00
74420;DHT22;62855;50.718;-2.460;2023-06-05T03:24:08;50.36;80.00
74420;DHT22;62855;50.718;-2.460;2023-06-05T03:27:06;50.18;80.00
74420;DHT22;62855;50.718;-2.460;2023-06-05T03:30:08;50.18;80.00
74420;DHT22;62855;50.718;-2.460;2023-06-05T03:33:06;50.18;80.00
74420;DHT22;62855;50.718;-2.460;2023-06-05T03:36:06;50.00;81.00
74420;DHT22;62855;50.718;-2.460;2023-06-05T03:39:07;50.00;81.00
74420;DHT22;62855;50.718;-2.460;2023-06-05T03:42:06;50.00;81.00
74420;DHT22;62855;50.718;-2.460;2023-06-05T03:45:07;50.00;81.00
74420;DHT22;62855;50.718;-2.460;2023-06-05T03:48:07;50.00;81.00
74420;DHT22;62855;50.718;-2.460;2023-06-05T03:51:06;49.82;81.00
74420;DHT22;62855;50.718;-2.460;2023-06-05T03:54:06;49.82;81.00
74420;DHT22;62855;50.718;-2.460;2023-06-05T03:57:06;49.82;81.00
74420;DHT22;62855;50.718;-2.460;2023-06-05T04:00:07;49.64;81.00
74420;DHT22;62855;50.718;-2.460;2023-06-05T04:03:06;49.46;81.00
74420;DHT22;62855;50.718;-2.460;2023-06-05T04:06:06;49.46;81.00
74420;DHT22;62855;50.718;-2.460;2023-06-05T04:09:06;49.28;81.00
74420;DHT22;62855;50.718;-2.460;2023-06-05T04:12:07;49.28;81.00
74420;DHT22;62855;50.718;-2.460;2023-06-05T04:15:07;49.10;81.00
74420;DHT22;62855;50.718;-2.460;2023-06-05T04:18:06;49.10;81.00
74420;DHT22;62855;50.718;-2.460;2023-06-05T04:21:06;48.92;82.00
74420;DHT22;62855;50.718;-2.460;2023-06-05T04:24:07;48.92;82.00
74420;DHT22;62855;50.718;-2.460;2023-06-05T04:27:06;48.74;82.00
74420;DHT22;62855;50.718;-2.460;2023-06-05T04:30:08;48.74;82.00
74420;DHT22;62855;50.718;-2.460;2023-06-05T04:33:06;48.56;82.00
74420;DHT22;62855;50.718;-2.460;2023-06-05T04:36:06;48.56;82.00
74420;DHT22;62855;50.718;-2.460;2023-06-05T04:39:06;48.38;82.00
74420;DHT22;62855;50.718;-2.460;2023-06-05T04:42:06;48.38;82.00
74420;DHT22;62855;50.718;-2.460;2023-06-05T04:45:07;48.38;82.00
74420;DHT22;62855;50.718;-2.460;2023-06-05T04:48:07;48.38;82.00
74420;DHT22;62855;50.718;-2.460;2023-06-05T04:51:06;48.20;82.00
74420;DHT22;62855;50.718;-2.460;2023-06-05T04:54:06;48.20;82.00
74420;DHT22;62855;50.718;-2.460;2023-06-05T04:57:06;48.20;82.00
74420;DHT22;62855;50.718;-2.460;2023-06-05T05:00:07;48.20;82.00
74420;DHT22;62855;50.718;-2.460;2023-06-05T05:03:07;48.20;82.00
74420;DHT22;62855;50.718;-2.460;2023-06-05T05:06:06;48.20;82.00
74420;DHT22;62855;50.718;-2.460;2023-06-05T05:09:06;48.20;82.00
74420;DHT22;62855;50.718;-2.460;2023-06-05T05:12:07;48.20;82.00
74420;DHT22;62855;50.718;-2.460;2023-06-05T05:15:07;48.20;82.00
74420;DHT22;62855;50.718;-2.460;2023-06-05T05:18:06;48.20;82.00
74420;DHT22;62855;50.718;-2.460;2023-06-05T05:21:06;48.20;82.00
74420;DHT22;62855;50.718;-2.460;2023-06-05T05:24:06;48.20;82.00
74420;DHT22;62855;50.718;-2.460;2023-06-05T05:27:07;48.38;82.00
74420;DHT22;62855;50.718;-2.460;2023-06-05T05:30:07;48.38;82.00
74420;DHT22;62855;50.718;-2.460;2023-06-05T05:33:06;48.38;82.00
74420;DHT22;62855;50.718;-2.460;2023-06-05T05:36:06;48.38;82.00
74420;DHT22;62855;50.718;-2.460;2023-06-05T05:39:06;48.56;81.00
74420;DHT22;62855;50.718;-2.460;2023-06-05T05:42:06;48.56;81.00
74420;DHT22;62855;50.718;-2.460;2023-06-05T05:45:07;48.56;81.00
74420;DHT22;62855;50.718;-2.460;2023-06-05T05:48:06;48.74;81.00
74420;DHT22;62855;50.718;-2.460;2023-06-05T05:51:06;48.74;81.00
74420;DHT22;62855;50.718;-2.460;2023-06-05T05:54:06;48.92;81.00
74420;DHT22;62855;50.718;-2.460;2023-06-05T05:57:06;48.92;81.00
74420;DHT22;62855;50.718;-2.460;2023-06-05T06:00:07;49.10;81.00
74420;DHT22;62855;50.718;-2.460;2023-06-05T06:03:06;49.28;81.00
74420;DHT22;62855;50.718;-2.460;2023-06-05T06:06:06;49.46;81.00
74420;DHT22;62855;50.718;-2.460;2023-06-05T06:09:06;49.46;81.00
74420;DHT22;62855;50.718;-2.460;2023-06-05T06:12:07;49.64;81.00
74420;DHT22;62855;50.718;-2.460;2023-06-05T06:15:07;49.82;81.00
74420;DHT22;62855;50.718;-2.460;2023-06-05T06:18:06;50.18;81.00
74420;DHT22;62855;50.718;-2.460;2023-06-05T06:21:06;50.54;80.00
74420;DHT22;62855;50.718;-2.460;2023-06-05T06:24:07;50.72;80.00
74420;DHT22;62855;50.718;-2.460;2023-06-05T06:27:06;50.90;80.00
74420;DHT22;62855;50.718;-2.460;2023-06-05T06:30:07;50.90;79.00
74420;DHT22;62855;50.718;-2.460;2023-06-05T06:33:06;50.90;78.00
74420;DHT22;62855;50.718;-2.460;2023-06-05T06:36:06;50.90;77.00
74420;DHT22;62855;50.718;-2.460;2023-06-05T06:39:07;50.72;76.00
74420;DHT22;62855;50.718;-2.460;2023-06-05T06:42:06;50.72;76.00
74420;DHT22;62855;50.718;-2.460;2023-06-05T06:45:07;50.72;75.00
74420;DHT22;62855;50.718;-2.460;2023-06-05T06:48:06;50.72;75.00
74420;DHT22;62855;50.718;-2.460;2023-06-05T06:51:06;50.72;75.00
74420;DHT22;62855;50.718;-2.460;2023-06-05T06:54:06;50.72;75.00
74420;DHT22;62855;50.718;-2.460;2023-06-05T06:57:06;50.72;74.00
74420;DHT22;62855;50.718;-2.460;2023-06-05T07:00:07;50.90;74.00
74420;DHT22;62855;50.718;-2.460;2023-06-05T07:03:06;51.08;74.00
74420;DHT22;62855;50.718;-2.460;2023-06-05T07:06:06;51.26;74.00
74420;DHT22;62855;50.718;-2.460;2023-06-05T07:09:06;51.62;74.00
74420;DHT22;62855;50.718;-2.460;2023-06-05T07:12:08;51.80;73.00
74420;DHT22;62855;50.718;-2.460;2023-06-05T07:15:07;51.80;73.00
74420;DHT22;62855;50.718;-2.460;2023-06-05T07:18:06;52.16;73.00
74420;DHT22;62855;50.718;-2.460;2023-06-05T07:21:06;52.34;72.00
74420;DHT22;62855;50.718;-2.460;2023-06-05T07:24:06;52.34;72.00
74420;DHT22;62855;50.718;-2.460;2023-06-05T07:27:06;52.52;71.00
74420;DHT22;62855;50.718;-2.460;2023-06-05T07:30:07;52.52;71.00
74420;DHT22;62855;50.718;-2.460;2023-06-05T07:33:06;52.52;71.00
74420;DHT22;62855;50.718;-2.460;2023-06-05T07:36:07;52.70;70.00
74420;DHT22;62855;50.718;-2.460;2023-06-05T07:39:06;52.88;71.00
74420;DHT22;62855;50.718;-2.460;2023-06-05T07:42:06;52.88;71.00
74420;DHT22;62855;50.718;-2.460;2023-06-05T07:45:07;53.24;70.00
74420;DHT22;62855;50.718;-2.460;2023-06-05T07:48:06;53.42;70.00
74420;DHT22;62855;50.718;-2.460;2023-06-05T07:51:06;53.42;70.00
74420;DHT22;62855;50.718;-2.460;2023-06-05T07:54:08;53.60;66.00
74420;DHT22;62855;50.718;-2.460;2023-06-05T07:57:06;53.42;70.00
74420;DHT22;62855;50.718;-2.460;2023-06-05T08:00:07;53.60;66.00
74420;DHT22;62855;50.718;-2.460;2023-06-05T08:03:06;53.78;65.00
74420;DHT22;62855;50.718;-2.460;2023-06-05T08:06:06;54.14;65.00
74420;DHT22;62855;50.718;-2.460;2023-06-05T08:09:06;54.50;64.00
74420;DHT22;62855;50.718;-2.460;2023-06-05T08:12:06;54.68;64.00
74420;DHT22;62855;50.718;-2.460;2023-06-05T08:15:07;54.86;64.00
74420;DHT22;62855;50.718;-2.460;2023-06-05T08:18:06;55.04;63.00
74420;DHT22;62855;50.718;-2.460;2023-06-05T08:21:06;55.22;63.00
74420;DHT22;62855;50.718;-2.460;2023-06-05T08:24:06;55.58;63.00
74420;DHT22;62855;50.718;-2.460;2023-06-05T08:27:06;56.12;63.00
74420;DHT22;62855;50.718;-2.460;2023-06-05T08:30:07;56.30;63.00
74420;DHT22;62855;50.718;-2.460;2023-06-05T08:33:06;56.66;62.00
74420;DHT22;62855;50.718;-2.460;2023-06-05T08:36:06;56.66;61.00
74420;DHT22;62855;50.718;-2.460;2023-06-05T08:39:06;56.66;61.00
74420;DHT22;62855;50.718;-2.460;2023-06-05T08:42:06;56.84;61.00
74420;DHT22;62855;50.718;-2.460;2023-06-05T08:45:07;57.20;61.00
74420;DHT22;62855;50.718;-2.460;2023-06-05T08:48:07;57.56;61.00
74420;DHT22;62855;50.718;-2.460;2023-06-05T08:51:07;57.92;61.00
74420;DHT22;62855;50.718;-2.460;2023-06-05T08:54:08;58.10;61.00
74420;DHT22;62855;50.718;-2.460;2023-06-05T08:57:07;58.28;60.00
74420;DHT22;62855;50.718;-2.460;2023-06-05T09:00:07;58.46;60.00
74420;DHT22;62855;50.718;-2.460;2023-06-05T09:03:10;58.64;60.00
74420;DHT22;62855;50.718;-2.460;2023-06-05T09:06:09;58.64;60.00
74420;DHT22;62855;50.718;-2.460;2023-06-05T09:09:07;59.00;60.00
74420;DHT22;62855;50.718;-2.460;2023-06-05T09:12:07;59.00;58.00
74420;DHT22;62855;50.718;-2.460;2023-06-05T09:18:08;59.36;58.00
74420;DHT22;62855;50.718;-2.460;2023-06-05T09:21:11;59.72;58.00
74420;DHT22;62855;50.718;-2.460;2023-06-05T09:24:11;60.08;58.00
74420;DHT22;62855;50.718;-2.460;2023-06-05T09:27:08;60.80;58.00
74420;DHT22;62855;50.718;-2.460;2023-06-05T09:30:07;61.16;57.00
74420;DHT22;62855;50.718;-2.460;2023-06-05T09:33:08;60.62;59.00
74420;DHT22;62855;50.718;-2.460;2023-06-05T09:36:08;60.26;56.00
74420;DHT22;62855;50.718;-2.460;2023-06-05T09:39:14;59.90;56.00
74420;DHT22;62855;50.718;-2.460;2023-06-05T09:42:07;59.72;58.00
74420;DHT22;62855;50.718;-2.460;2023-06-05T09:45:07;59.72;57.00
74420;DHT22;62855;50.718;-2.460;2023-06-05T09:48:13;59.90;57.00
74420;DHT22;62855;50.718;-2.460;2023-06-05T09:51:11;60.26;58.00
74420;DHT22;62855;50.718;-2.460;2023-06-05T09:54:07;60.26;56.00
74420;DHT22;62855;50.718;-2.460;2023-06-05T09:57:07;59.90;56.00
74420;DHT22;62855;50.718;-2.460;2023-06-05T10:00:07;59.90;56.00
74420;DHT22;62855;50.718;-2.460;2023-06-05T10:03:10;60.08;57.00
74420;DHT22;62855;50.718;-2.460;2023-06-05T10:06:07;60.26;57.00
74420;DHT22;62855;50.718;-2.460;2023-06-05T10:09:07;60.62;58.00
74420;DHT22;62855;50.718;-2.460;2023-06-05T10:12:06;60.98;57.00
74420;DHT22;62855;50.718;-2.460;2023-06-05T10:15:07;60.98;58.00
74420;DHT22;62855;50.718;-2.460;2023-06-05T10:18:06;61.70;59.00
74420;DHT22;62855;50.718;-2.460;2023-06-05T10:21:07;61.52;56.00
74420;DHT22;62855;50.718;-2.460;2023-06-05T10:24:11;61.70;56.00
74420;DHT22;62855;50.718;-2.460;2023-06-05T10:27:21;61.88;57.00
74420;DHT22;62855;50.718;-2.460;2023-06-05T10:30:24;62.24;57.00
74420;DHT22;62855;50.718;-2.460;2023-06-05T10:33:19;62.78;53.00
74420;DHT22;62855;50.718;-2.460;2023-06-05T10:36:13;62.60;52.00
74420;DHT22;62855;50.718;-2.460;2023-06-05T10:39:08;62.60;52.00
74420;DHT22;62855;50.718;-2.460;2023-06-05T10:42:06;62.96;52.00
74420;DHT22;62855;50.718;-2.460;2023-06-05T10:45:07;63.14;51.00
74420;DHT22;62855;50.718;-2.460;2023-06-05T10:48:06;63.32;51.00
74420;DHT22;62855;50.718;-2.460;2023-06-05T10:54:07;62.60;50.00
74420;DHT22;62855;50.718;-2.460;2023-06-05T10:57:06;62.60;52.00
74420;DHT22;62855;50.718;-2.460;2023-06-05T11:00:07;62.78;52.00
74420;DHT22;62855;50.718;-2.460;2023-06-05T11:03:06;62.96;52.00
74420;DHT22;62855;50.718;-2.460;2023-06-05T11:06:12;63.14;52.00
74420;DHT22;62855;50.718;-2.460;2023-06-05T11:09:09;63.14;52.00
74420;DHT22;62855;50.718;-2.460;2023-06-05T11:12:07;63.50;52.00
74420;DHT22;62855;50.718;-2.460;2023-06-05T11:15:07;63.50;51.00
74420;DHT22;62855;50.718;-2.460;2023-06-05T11:21:06;63.68;52.00
74420;DHT22;62855;50.718;-2.460;2023-06-05T11:24:13;63.86;52.00
74420;DHT22;62855;50.718;-2.460;2023-06-05T11:27:40;64.22;52.00
74420;DHT22;62855;50.718;-2.460;2023-06-05T11:30:11;64.04;52.00
74420;DHT22;62855;50.718;-2.460;2023-06-05T11:33:06;64.22;53.00
74420;DHT22;62855;50.718;-2.460;2023-06-05T11:36:06;64.58;52.00
74420;DHT22;62855;50.718;-2.460;2023-06-05T11:41:08;64.94;51.00
74420;DHT22;62855;50.718;-2.460;2023-06-05T11:44:07;64.76;50.00
74420;DHT22;62855;50.718;-2.460;2023-06-05T11:47:06;64.76;51.00
74420;DHT22;62855;50.718;-2.460;2023-06-05T11:50:07;64.94;51.00
74420;DHT22;62855;50.718;-2.460;2023-06-05T11:53:07;65.30;51.00
74420;DHT22;62855;50.718;-2.460;2023-06-05T11:56:12;65.30;51.00
74420;DHT22;62855;50.718;-2.460;2023-06-05T11:59:08;65.30;51.00
74420;DHT22;62855;50.718;-2.460;2023-06-05T12:02:07;65.30;51.00
74420;DHT22;62855;50.718;-2.460;2023-06-05T12:05:06;65.66;51.00
74420;DHT22;62855;50.718;-2.460;2023-06-05T12:08:21;65.66;50.00
74420;DHT22;62855;50.718;-2.460;2023-06-05T12:11:20;65.66;50.00
74420;DHT22;62855;50.718;-2.460;2023-06-05T12:14:06;65.84;51.00
74420;DHT22;62855;50.718;-2.460;2023-06-05T12:17:11;66.20;51.00
74420;DHT22;62855;50.718;-2.460;2023-06-05T12:20:06;66.02;50.00
74420;DHT22;62855;50.718;-2.460;2023-06-05T12:23:06;65.84;50.00
74420;DHT22;62855;50.718;-2.460;2023-06-05T12:26:06;65.66;50.00
74420;DHT22;62855;50.718;-2.460;2023-06-05T12:29:06;65.84;51.00
74420;DHT22;62855;50.718;-2.460;2023-06-05T12:32:20;66.02;51.00
74420;DHT22;62855;50.718;-2.460;2023-06-05T12:35:18;65.84;49.00
74420;DHT22;62855;50.718;-2.460;2023-06-05T12:38:07;65.84;49.00
74420;DHT22;62855;50.718;-2.460;2023-06-05T12:41:07;66.20;50.00
74420;DHT22;62855;50.718;-2.460;2023-06-05T12:44:06;66.20;50.00
74420;DHT22;62855;50.718;-2.460;2023-06-05T12:47:06;66.38;50.00
74420;DHT22;62855;50.718;-2.460;2023-06-05T12:50:07;66.56;51.00
74420;DHT22;62855;50.718;-2.460;2023-06-05T12:53:07;67.10;51.00
74420;DHT22;62855;50.718;-2.460;2023-06-05T12:56:06;67.46;50.00
74420;DHT22;62855;50.718;-2.460;2023-06-05T12:59:06;66.92;50.00
74420;DHT22;62855;50.718;-2.460;2023-06-05T13:02:06;66.74;50.00
74420;DHT22;62855;50.718;-2.460;2023-06-05T13:05:07;66.92;50.00
74420;DHT22;62855;50.718;-2.460;2023-06-05T13:08:06;66.92;50.00
74420;DHT22;62855;50.718;-2.460;2023-06-05T13:11:06;66.92;50.00
74420;DHT22;62855;50.718;-2.460;2023-06-05T13:14:07;67.10;50.00
74420;DHT22;62855;50.718;-2.460;2023-06-05T13:17:06;67.46;51.00
74420;DHT22;62855;50.718;-2.460;2023-06-05T13:20:07;67.46;50.00
74420;DHT22;62855;50.718;-2.460;2023-06-05T13:23:06;67.28;50.00
74420;DHT22;62855;50.718;-2.460;2023-06-05T13:26:06;67.46;50.00
74420;DHT22;62855;50.718;-2.460;2023-06-05T13:29:06;67.46;50.00
74420;DHT22;62855;50.718;-2.460;2023-06-05T13:32:06;67.82;50.00
74420;DHT22;62855;50.718;-2.460;2023-06-05T13:35:07;67.82;48.00
74420;DHT22;62855;50.718;-2.460;2023-06-05T13:38:06;67.64;48.00
74420;DHT22;62855;50.718;-2.460;2023-06-05T13:41:06;67.64;49.00
74420;DHT22;62855;50.718;-2.460;2023-06-05T13:44:06;67.64;49.00
74420;DHT22;62855;50.718;-2.460;2023-06-05T13:47:06;67.64;49.00
74420;DHT22;62855;50.718;-2.460;2023-06-05T13:50:07;67.64;49.00
74420;DHT22;62855;50.718;-2.460;2023-06-05T13:53:06;67.46;48.00
74420;DHT22;62855;50.718;-2.460;2023-06-05T13:56:06;67.46;49.00
74420;DHT22;62855;50.718;-2.460;2023-06-05T13:59:06;67.46;49.00
74420;DHT22;62855;50.718;-2.460;2023-06-05T14:02:06;67.64;50.00
74420;DHT22;62855;50.718;-2.460;2023-06-05T14:05:07;67.64;50.00
74420;DHT22;62855;50.718;-2.460;2023-06-05T14:08:06;67.82;50.00
74420;DHT22;62855;50.718;-2.460;2023-06-05T14:11:06;67.64;47.00
74420;DHT22;62855;50.718;-2.460;2023-06-05T14:14:06;67.28;48.00
74420;DHT22;62855;50.718;-2.460;2023-06-05T14:17:06;67.28;49.00
74420;DHT22;62855;50.718;-2.460;2023-06-05T14:20:07;67.10;47.00
74420;DHT22;62855;50.718;-2.460;2023-06-05T14:23:07;67.28;49.00
74420;DHT22;62855;50.718;-2.460;2023-06-05T14:26:06;67.46;49.00
74420;DHT22;62855;50.718;-2.460;2023-06-05T14:29:08;67.64;47.00
74420;DHT22;62855;50.718;-2.460;2023-06-05T14:32:07;67.46;47.00
74420;DHT22;62855;50.718;-2.460;2023-06-05T14:35:07;67.46;47.00
74420;DHT22;62855;50.718;-2.460;2023-06-05T14:38:06;67.46;47.00
74420;DHT22;62855;50.718;-2.460;2023-06-05T14:41:07;67.46;48.00
74420;DHT22;62855;50.718;-2.460;2023-06-05T14:44:06;67.64;46.00
74420;DHT22;62855;50.718;-2.460;2023-06-05T14:47:06;67.64;47.00
74420;DHT22;62855;50.718;-2.460;2023-06-05T14:50:07;67.64;47.00
74420;DHT22;62855;50.718;-2.460;2023-06-05T14:53:06;67.64;46.00
74420;DHT22;62855;50.718;-2.460;2023-06-05T14:56:06;67.64;46.00
74420;DHT22;62855;50.718;-2.460;2023-06-05T14:59:06;67.64;46.00
74420;DHT22;62855;50.718;-2.460;2023-06-05T15:02:06;67.64;46.00
74420;DHT22;62855;50.718;-2.460;2023-06-05T15:05:07;67.64;46.00
74420;DHT22;62855;50.718;-2.460;2023-06-05T15:08:06;67.64;46.00
74420;DHT22;62855;50.718;-2.460;2023-06-05T15:11:07;67.64;46.00
74420;DHT22;62855;50.718;-2.460;2023-06-05T15:14:06;67.64;46.00
74420;DHT22;62855;50.718;-2.460;2023-06-05T15:17:06;67.64;46.00
74420;DHT22;62855;50.718;-2.460;2023-06-05T15:20:07;67.64;46.00
74420;DHT22;62855;50.718;-2.460;2023-06-05T15:23:06;67.64;46.00
74420;DHT22;62855;50.718;-2.460;2023-06-05T15:26:06;67.64;46.00
74420;DHT22;62855;50.718;-2.460;2023-06-05T15:29:06;67.64;46.00
74420;DHT22;62855;50.718;-2.460;2023-06-05T15:32:06;67.64;46.00
74420;DHT22;62855;50.718;-2.460;2023-06-05T15:35:06;67.64;46.00
74420;DHT22;62855;50.718;-2.460;2023-06-05T15:38:06;67.64;46.00
74420;DHT22;62855;50.718;-2.460;2023-06-05T15:41:06;67.64;46.00
74420;DHT22;62855;50.718;-2.460;2023-06-05T15:44:06;67.64;46.00
74420;DHT22;62855;50.718;-2.460;2023-06-05T15:47:06;67.64;46.00
74420;DHT22;62855;50.718;-2.460;2023-06-05T15:50:07;67.64;46.00
74420;DHT22;62855;50.718;-2.460;2023-06-05T15:53:06;67.64;46.00
74420;DHT22;62855;50.718;-2.460;2023-06-05T15:56:06;67.64;46.00
74420;DHT22;62855;50.718;-2.460;2023-06-05T15:59:06;67.64;46.00
74420;DHT22;62855;50.718;-2.460;2023-06-05T16:02:06;67.64;46.00
74420;DHT22;62855;50.718;-2.460;2023-06-05T16:05:07;67.64;46.00
74420;DHT22;62855;50.718;-2.460;2023-06-05T16:08:06;67.64;46.00
74420;DHT22;62855;50.718;-2.460;2023-06-05T16:11:06;67.64;46.00
74420;DHT22;62855;50.718;-2.460;2023-06-05T16:14:06;67.64;46.00
74420;DHT22;62855;50.718;-2.460;2023-06-05T16:17:06;67.64;46.00
74420;DHT22;62855;50.718;-2.460;2023-06-05T16:20:08;67.64;46.00
74420;DHT22;62855;50.718;-2.460;2023-06-05T16:23:06;67.64;46.00
74420;DHT22;62855;50.718;-2.460;2023-06-05T16:26:06;67.64;46.00
74420;DHT22;62855;50.718;-2.460;2023-06-05T16:29:06;67.64;46.00
74420;DHT22;62855;50.718;-2.460;2023-06-05T16:32:07;67.64;46.00
74420;DHT22;62855;50.718;-2.460;2023-06-05T16:35:07;67.64;46.00
74420;DHT22;62855;50.718;-2.460;2023-06-05T16:38:06;67.64;46.00
74420;DHT22;62855;50.718;-2.460;2023-06-05T16:41:06;67.64;46.00
74420;DHT22;62855;50.718;-2.460;2023-06-05T16:44:06;67.64;46.00
74420;DHT22;62855;50.718;-2.460;2023-06-05T16:47:06;67.64;46.00
74420;DHT22;62855;50.718;-2.460;2023-06-05T16:50:06;67.64;46.00
74420;DHT22;62855;50.718;-2.460;2023-06-05T16:53:06;67.64;46.00
74420;DHT22;62855;50.718;-2.460;2023-06-05T16:56:06;67.64;46.00
74420;DHT22;62855;50.718;-2.460;2023-06-05T16:59:10;67.64;46.00
74420;DHT22;62855;50.718;-2.460;2023-06-05T17:02:06;67.64;46.00
74420;DHT22;62855;50.718;-2.460;2023-06-05T17:05:07;67.64;46.00
74420;DHT22;62855;50.718;-2.460;2023-06-05T17:08:06;67.64;46.00
74420;DHT22;62855;50.718;-2.460;2023-06-05T17:11:06;67.64;46.00
74420;DHT22;62855;50.718;-2.460;2023-06-05T17:14:06;67.64;46.00
74420;DHT22;62855;50.718;-2.460;2023-06-05T17:17:06;67.64;46.00
74420;DHT22;62855;50.718;-2.460;2023-06-05T17:20:07;67.64;46.00
74420;DHT22;62855;50.718;-2.460;2023-06-05T17:23:06;67.64;46.00
74420;DHT22;62855;50.718;-2.460;2023-06-05T17:26:06;67.64;46.00
74420;DHT22;62855;50.718;-2.460;2023-06-05T17:29:06;67.64;46.00
74420;DHT22;62855;50.718;-2.460;2023-06-05T17:32:07;67.64;46.00
74420;DHT22;62855;50.718;-2.460;2023-06-05T17:35:07;67.64;46.00
74420;DHT22;62855;50.718;-2.460;2023-06-05T17:38:06;67.64;46.00
74420;DHT22;62855;50.718;-2.460;2023-06-05T17:41:06;67.64;46.00
74420;DHT22;62855;50.718;-2.460;2023-06-05T17:44:06;67.64;46.00
74420;DHT22;62855;50.718;-2.460;2023-06-05T17:47:07;67.64;46.00
74420;DHT22;62855;50.718;-2.460;2023-06-05T17:50:07;67.64;46.00
74420;DHT22;62855;50.718;-2.460;2023-06-05T17:53:06;67.64;46.00
74420;DHT22;62855;50.718;-2.460;2023-06-05T17:56:06;67.64;46.00
74420;DHT22;62855;50.718;-2.460;2023-06-05T17:59:06;67.64;46.00
74420;DHT22;62855;50.718;-2.460;2023-06-05T18:02:07;67.64;46.00
74420;DHT22;62855;50.718;-2.460;2023-06-05T18:05:06;67.64;46.00
74420;DHT22;62855;50.718;-2.460;2023-06-05T18:08:06;67.64;46.00
74420;DHT22;62855;50.718;-2.460;2023-06-05T18:11:06;67.64;46.00
74420;DHT22;62855;50.718;-2.460;2023-06-05T18:14:06;67.64;46.00
74420;DHT22;62855;50.718;-2.460;2023-06-05T18:17:06;67.64;46.00
74420;DHT22;62855;50.718;-2.460;2023-06-05T18:20:32;65.48;51.00
74420;DHT22;62855;50.718;-2.460;2023-06-05T18:23:06;65.12;52.00
74420;DHT22;62855;50.718;-2.460;2023-06-05T18:26:07;64.94;52.00
74420;DHT22;62855;50.718;-2.460;2023-06-05T18:29:06;64.76;52.00
74420;DHT22;62855;50.718;-2.460;2023-06-05T18:32:06;64.58;51.00
74420;DHT22;62855;50.718;-2.460;2023-06-05T18:35:07;64.58;51.00
74420;DHT22;62855;50.718;-2.460;2023-06-05T18:38:06;64.22;51.00
74420;DHT22;62855;50.718;-2.460;2023-06-05T18:41:06;64.04;51.00
74420;DHT22;62855;50.718;-2.460;2023-06-05T18:44:06;64.04;52.00
74420;DHT22;62855;50.718;-2.460;2023-06-05T18:47:07;63.86;52.00